New Haven, Connecticut
Current Conditions -  °F | °C
As of 9:53 AM on Monday 24 Nov 2014 (Local Time) from KHVN Reporting Station
Light Rain Light Rain  
Wind Chill: 62°   Ceiling: 600
Heat Index: 62°   Visibility: 1mi
Dew Point: 58°   Wind: 8mph
Humidity: 86%   Direction: 200°SSW
Pressure: 29.72"   Gusts: NA
Location:  41.31°N, 72.92°W
Report Text: KHVN 241453Z 20007KT 1SM -RA BR BKN006 OVC009 17/14 A2972 RMK AO2 RAB45 SLP062 P0000 60003 T01670144 58008 RVRNO
Loading
Personal Weather Stations






























Interactive Weather Map New forecast layout! Learn more

10-Day Weather Forecast

Advertisements
Track Severe Weather on mobile